DW8887 Weather Reports


Display with metric or nautical units.
time (UTC)temp
F
wind
direction
speed
MPH
gust
MPH
rain 1hr
in
rain 24hr
in
rain mn
in
humidity
%
barometer
mb
20201029100037 31 117 0.0 0.0 0.00 0.00 0.00 89 1024.4
20201029094522 31 117 0.0 0.0 0.00 0.00 0.00 88 1024.3
20201029093028 31 117 0.0 0.0 0.00 0.00 0.00 88 1024.2
20201029084710 33 146 0.0 0.0 0.00 0.00 0.00 91 1024.1
20201029083322 32 146 0.0 0.0 0.00 0.00 0.00 88 1024.1
20201029080104 33 153 0.0 0.0 0.00 0.00 0.00 88 1024.2
20201029074525 33 153 0.0 0.0 0.00 0.00 0.00 87 1024.2
20201029073120 33 153 0.0 0.0 0.00 0.00 0.00 85 1024.3
20201029070130 34 153 0.0 0.0 0.00 0.00 0.00 85 1024.2
20201029064847 35 153 0.0 0.0 0.00 0.00 0.00 87 1024.2
20201029063151 35 153 0.0 0.0 0.00 0.00 0.00 86 1024.2
20201029060115 35 153 0.0 0.0 0.00 0.00 0.00 83 1024.1
20201029054534 36 153 0.0 0.0 0.00 0.00 0.00 83 1024.0
20201029053148 36 153 0.0 0.0 0.00 0.00 0.00 84 1024.0
20201029050137 37 162 0.0 0.0 0.00 0.00 0.00 83 1023.7
20201029044624 38 162 0.0 0.0 0.00 0.00 0.00 81 1023.6
20201029043119 39 168 0.0 0.0 0.00 0.00 0.00 77 1023.5
20201029040058 41 168 0.0 0.0 0.00 0.00 0.00 79 1023.6
20201029034546 41 168 0.0 0.0 0.00 0.00 0.00 77 1023.4
20201029033044 42 168 0.0 0.0 0.00 0.00 0.00 76 1023.5
20201029030122 42 168 0.0 0.0 0.00 0.00 0.00 76 1023.5
20201029024628 43 168 0.0 0.0 0.00 0.00 0.00 71 1023.4
20201029023135 45 169 0.0 0.0 0.00 0.00 0.00 65 1023.4
20201029020031 48 269 0.0 0.0 0.00 0.00 0.00 67 1023.4
20201029014517 49 269 0.0 0.0 0.00 0.00 0.00 65 1023.4
20201029013021 51 271 0.0 0.0 0.00 0.00 0.00 62 1023.3
20201029010044 54 271 0.0 0.0 0.00 0.00 0.00 57 1023.0
20201029004723 55 271 0.0 0.0 0.00 0.00 0.00 57 1023.1
20201029003058 56 271 0.0 0.0 0.00 0.00 0.00 55 1023.0
20201029001602 56 271 0.0 0.0 0.00 0.00 0.00 55 1023.0
20201029000054 57 272 0.0 0.0 0.00 0.00 0.00 53 1022.9
20201028234539 59 272 1.0 2.0 0.00 0.00 0.00 51 1023.0
20201028233101 60 272 0.0 0.0 0.00 0.00 0.00 50 1023.1
20201028231608 62 271 1.0 2.0 0.00 0.00 0.00 47 1023.3
20201028230059 63 271 2.0 4.0 0.00 0.00 0.00 44 1023.4
20201028224608 65 217 0.0 3.0 0.00 0.00 0.00 39 1023.4
20201028223047 65 168 0.0 0.0 0.00 0.00 0.00 38 1023.4
20201028221530 65 169 0.0 0.0 0.00 0.00 0.00 36 1023.5
20201028214712 64 167 0.0 0.0 0.00 0.00 0.00 37 1023.9
20201028213021 64 167 0.0 0.0 0.00 0.00 0.00 37 1024.3
20201028211509 63 183 0.0 3.0 0.00 0.00 0.00 38 1024.4
20201028210134 63 167 0.0 3.0 0.00 0.00 0.00 39 1024.6
20201028204703 62 146 0.0 0.0 0.00 0.00 0.00 42 1025.1
20201028203207 60 143 0.0 0.0 0.00 0.00 0.00 43 1025.3
20201028201628 59 154 0.0 0.0 0.00 0.00 0.00 44 1025.5
20201028200146 57 153 0.0 3.0 0.00 0.00 0.00 47 1025.7
20201028194620 56 311 0.0 0.0 0.00 0.00 0.00 46 1026.0
20201028193138 54 311 0.0 2.0 0.00 0.00 0.00 49 1026.2
20201028191616 53 311 0.0 0.0 0.00 0.00 0.00 50 1026.5
20201028190138 51 309 0.0 0.0 0.00 0.00 0.00 54 1026.8
20201028184619 50 337 0.0 0.0 0.00 0.00 0.00 55 1027.0
20201028183039 48 353 0.0 0.0 0.00 0.00 0.00 57 1027.1
20201028181524 47 356 0.0 0.0 0.00 0.00 0.00 61 1027.4
20201028180020 45 356 0.0 0.0 0.00 0.00 0.00 63 1027.5
20201028174649 44 356 0.0 0.0 0.00 0.00 0.00 66 1027.7
20201028173023 42 293 0.0 0.0 0.00 0.00 0.00 72 1027.8
20201028171631 40 271 0.0 0.0 0.00 0.00 0.00 76 1027.9
20201028170121 38 271 0.0 0.0 0.00 0.00 0.00 81 1028.1
20201028164907 36 271 0.0 0.0 0.00 0.00 0.00 86 1028.3
20201028163108 33 284 0.0 2.0 0.00 0.00 0.00 90 1028.2
20201028161645 31 294 0.0 2.0 0.00 0.00 0.00 91 1028.4
20201028160202 29 325 0.0 1.0 0.00 0.00 0.00 91 1028.3
20201028154705 28 322 0.0 1.0 0.00 0.00 0.00 90 1028.0
20201028153234 26 318 0.0 1.0 0.00 0.00 0.00 89 1027.9
20201028151732 0 0.0 0.0 0.00 0.00 0.00 1027.7
20201028150041 0 0.0 0.0 0.00 0.00 0.00 1027.7
20201028144537 0 0.0 0.0 0.00 0.00 0.00 1027.9
20201028143026 0 0.0 0.0 0.00 0.00 0.00 1027.8
20201028141609 25 317 0.0 0.0 0.00 0.00 0.00 87 1028.0
20201028140101 25 317 0.0 0.0 0.00 0.00 0.00 87 1028.0
20201028134553 26 356 0.0 0.0 0.00 0.00 0.00 87 1027.9
20201028133123 26 356 0.0 0.0 0.00 0.00 0.00 87 1027.9
20201028131556 26 356 0.0 0.0 0.00 0.00 0.00 86 1027.9
20201028130107 26 356 0.0 0.0 0.00 0.00 0.00 85 1027.9
20201028124559 26 356 0.0 0.0 0.00 0.00 0.00 85 1027.7
20201028123053 27 356 0.0 1.0 0.00 0.00 0.00 85 1027.5
20201028121531 27 356 0.0 1.0 0.00 0.00 0.00 86 1027.4
20201028120038 27 18 0.0 0.0 0.00 0.00 0.00 88 1027.3
20201028114524 27 18 0.0 0.0 0.00 0.00 0.00 88 1027.3
20201028113027 27 17 0.0 0.0 0.00 0.00 0.00 87 1027.2
20201028111526 27 17 0.0 0.0 0.00 0.00 0.00 86 1027.3
20201028110048 27 17 0.0 0.0 0.00 0.00 0.00 87 1027.3
20201028104533 28 16 0.0 0.0 0.00 0.00 0.00 87 1027.3
20201028103024 28 15 0.0 0.0 0.00 0.00 0.00 87 1027.3
20201028101524 27 16 0.0 0.0 0.00 0.00 0.00 86 1027.4